sensor_id;sensor_type;location;lat;lon;timestamp;pressure;altitude;pressure_sealevel;temperature;humidity
60832;BME280;46665;51.558;-0.448;2023-12-14T00:01:13;156512.22;;;4.30;100.00
60832;BME280;46665;51.558;-0.448;2023-12-14T00:03:57;156507.06;;;4.28;100.00
60832;BME280;46665;51.558;-0.448;2023-12-14T00:06:41;156512.22;;;4.30;100.00
60832;BME280;46665;51.558;-0.448;2023-12-14T00:09:25;156504.50;;;4.27;100.00
60832;BME280;46665;51.558;-0.448;2023-12-14T00:12:09;156507.06;;;4.28;100.00
60832;BME280;46665;51.558;-0.448;2023-12-14T00:14:53;156499.31;;;4.25;100.00
60832;BME280;46665;51.558;-0.448;2023-12-14T00:17:37;156507.06;;;4.28;100.00
60832;BME280;46665;51.558;-0.448;2023-12-14T00:20:21;156507.06;;;4.28;100.00
60832;BME280;46665;51.558;-0.448;2023-12-14T00:23:05;156499.31;;;4.25;100.00
60832;BME280;46665;51.558;-0.448;2023-12-14T00:25:50;156494.16;;;4.23;100.00
60832;BME280;46665;51.558;-0.448;2023-12-14T00:28:34;156499.31;;;4.25;100.00
60832;BME280;46665;51.558;-0.448;2023-12-14T00:31:18;156513.56;;;4.30;100.00
60832;BME280;46665;51.558;-0.448;2023-12-14T00:34:02;156513.56;;;4.30;100.00
60832;BME280;46665;51.558;-0.448;2023-12-14T00:36:46;156509.66;;;4.29;100.00
60832;BME280;46665;51.558;-0.448;2023-12-14T00:39:30;156510.94;;;4.29;100.00
60832;BME280;46665;51.558;-0.448;2023-12-14T00:42:14;156516.09;;;4.31;100.00
60832;BME280;46665;51.558;-0.448;2023-12-14T00:44:58;156529.00;;;4.37;100.00
60832;BME280;46665;51.558;-0.448;2023-12-14T00:47:42;156504.50;;;4.27;100.00
60832;BME280;46665;51.558;-0.448;2023-12-14T00:50:26;156509.66;;;4.29;100.00
60832;BME280;46665;51.558;-0.448;2023-12-14T00:53:10;156507.06;;;4.28;100.00
60832;BME280;46665;51.558;-0.448;2023-12-14T00:55:54;156510.94;;;4.29;100.00
60832;BME280;46665;51.558;-0.448;2023-12-14T00:58:38;156505.78;;;4.27;100.00
60832;BME280;46665;51.558;-0.448;2023-12-14T01:01:22;156494.16;;;4.23;100.00
60832;BME280;46665;51.558;-0.448;2023-12-14T01:04:06;156494.16;;;4.23;100.00
60832;BME280;46665;51.558;-0.448;2023-12-14T01:06:50;156485.13;;;4.19;100.00
60832;BME280;46665;51.558;-0.448;2023-12-14T01:09:34;156492.88;;;4.22;100.00
60832;BME280;46665;51.558;-0.448;2023-12-14T01:12:18;156490.31;;;4.21;100.00
60832;BME280;46665;51.558;-0.448;2023-12-14T01:15:02;156489.03;;;4.21;100.00
60832;BME280;46665;51.558;-0.448;2023-12-14T01:17:46;156487.69;;;4.20;100.00
60832;BME280;46665;51.558;-0.448;2023-12-14T01:20:30;156487.69;;;4.20;100.00
60832;BME280;46665;51.558;-0.448;2023-12-14T01:23:14;156489.03;;;4.21;100.00
60832;BME280;46665;51.558;-0.448;2023-12-14T01:25:58;156474.81;;;4.15;100.00
60832;BME280;46665;51.558;-0.448;2023-12-14T01:28:43;156476.13;;;4.16;100.00
60832;BME280;46665;51.558;-0.448;2023-12-14T01:31:27;156473.53;;;4.15;100.00
60832;BME280;46665;51.558;-0.448;2023-12-14T01:34:11;156469.69;;;4.13;100.00
60832;BME280;46665;51.558;-0.448;2023-12-14T01:36:56;156481.25;;;4.18;100.00
60832;BME280;46665;51.558;-0.448;2023-12-14T01:39:40;156483.84;;;4.19;100.00
60832;BME280;46665;51.558;-0.448;2023-12-14T01:42:24;156469.69;;;4.13;100.00
60832;BME280;46665;51.558;-0.448;2023-12-14T01:45:09;156468.34;;;4.12;100.00
60832;BME280;46665;51.558;-0.448;2023-12-14T01:47:53;156476.13;;;4.16;100.00
60832;BME280;46665;51.558;-0.448;2023-12-14T01:50:37;156467.06;;;4.12;100.00
60832;BME280;46665;51.558;-0.448;2023-12-14T01:53:21;156463.22;;;4.10;100.00
60832;BME280;46665;51.558;-0.448;2023-12-14T01:56:06;156460.63;;;4.09;100.00
60832;BME280;46665;51.558;-0.448;2023-12-14T01:58:51;156443.88;;;4.03;100.00
60832;BME280;46665;51.558;-0.448;2023-12-14T02:01:45;156456.78;;;4.08;100.00
60832;BME280;46665;51.558;-0.448;2023-12-14T02:04:28;156443.88;;;4.03;100.00
60832;BME280;46665;51.558;-0.448;2023-12-14T02:07:14;156424.53;;;3.95;100.00
60832;BME280;46665;51.558;-0.448;2023-12-14T02:09:58;156423.19;;;3.95;100.00
60832;BME280;46665;51.558;-0.448;2023-12-14T02:12:42;156414.19;;;3.91;100.00
60832;BME280;46665;51.558;-0.448;2023-12-14T02:15:26;156420.66;;;3.94;100.00
60832;BME280;46665;51.558;-0.448;2023-12-14T02:18:10;156401.28;;;3.86;100.00
60832;BME280;46665;51.558;-0.448;2023-12-14T02:20:53;156400.00;;;3.85;100.00
60832;BME280;46665;51.558;-0.448;2023-12-14T02:23:44;156385.78;;;3.80;100.00
60832;BME280;46665;51.558;-0.448;2023-12-14T02:26:29;156380.69;;;3.78;100.00
60832;BME280;46665;51.558;-0.448;2023-12-14T02:29:13;156372.91;;;3.75;100.00
60832;BME280;46665;51.558;-0.448;2023-12-14T02:31:57;156362.59;;;3.71;100.00
60832;BME280;46665;51.558;-0.448;2023-12-14T02:34:40;156351.00;;;3.66;100.00
60832;BME280;46665;51.558;-0.448;2023-12-14T02:37:24;156349.72;;;3.65;100.00
60832;BME280;46665;51.558;-0.448;2023-12-14T02:40:10;156339.38;;;3.61;100.00
60832;BME280;46665;51.558;-0.448;2023-12-14T02:42:54;156313.59;;;3.51;100.00
60832;BME280;46665;51.558;-0.448;2023-12-14T02:45:38;156308.41;;;3.49;100.00
60832;BME280;46665;51.558;-0.448;2023-12-14T02:48:22;156281.34;;;3.38;100.00
60832;BME280;46665;51.558;-0.448;2023-12-14T02:51:06;156264.56;;;3.32;100.00
60832;BME280;46665;51.558;-0.448;2023-12-14T02:53:50;156251.69;;;3.26;100.00
60832;BME280;46665;51.558;-0.448;2023-12-14T02:56:33;156242.69;;;3.23;100.00
60832;BME280;46665;51.558;-0.448;2023-12-14T02:59:17;156220.78;;;3.14;100.00
60832;BME280;46665;51.558;-0.448;2023-12-14T03:02:01;156214.34;;;3.12;100.00
60832;BME280;46665;51.558;-0.448;2023-12-14T03:04:45;156189.84;;;3.02;100.00
60832;BME280;46665;51.558;-0.448;2023-12-14T03:07:29;156165.34;;;2.92;100.00
60832;BME280;46665;51.558;-0.448;2023-12-14T03:10:14;156162.78;;;2.91;100.00
60832;BME280;46665;51.558;-0.448;2023-12-14T03:12:57;156156.34;;;2.89;100.00
60832;BME280;46665;51.558;-0.448;2023-12-14T03:15:43;156151.16;;;2.87;100.00
60832;BME280;46665;51.558;-0.448;2023-12-14T03:18:27;156136.97;;;2.81;100.00
60832;BME280;46665;51.558;-0.448;2023-12-14T03:21:11;156109.91;;;2.70;100.00
60832;BME280;46665;51.558;-0.448;2023-12-14T03:23:55;156121.50;;;2.75;100.00
60832;BME280;46665;51.558;-0.448;2023-12-14T03:26:39;156112.50;;;2.71;100.00
60832;BME280;46665;51.558;-0.448;2023-12-14T03:29:23;156094.47;;;2.64;100.00
60832;BME280;46665;51.558;-0.448;2023-12-14T03:32:07;156088.00;;;2.62;100.00
60832;BME280;46665;51.558;-0.448;2023-12-14T03:34:51;156072.53;;;2.55;100.00
60832;BME280;46665;51.558;-0.448;2023-12-14T03:37:35;156051.91;;;2.47;100.00
60832;BME280;46665;51.558;-0.448;2023-12-14T03:40:19;156026.16;;;2.37;100.00
60832;BME280;46665;51.558;-0.448;2023-12-14T03:43:03;156002.94;;;2.28;100.00
60832;BME280;46665;51.558;-0.448;2023-12-14T03:45:48;156002.94;;;2.28;100.00
60832;BME280;46665;51.558;-0.448;2023-12-14T03:48:33;155974.63;;;2.16;100.00
60832;BME280;46665;51.558;-0.448;2023-12-14T03:51:20;155973.34;;;2.16;100.00
60832;BME280;46665;51.558;-0.448;2023-12-14T03:54:04;155968.19;;;2.14;100.00
60832;BME280;46665;51.558;-0.448;2023-12-14T03:56:48;155964.28;;;2.12;100.00
60832;BME280;46665;51.558;-0.448;2023-12-14T03:59:32;155960.44;;;2.11;100.00
60832;BME280;46665;51.558;-0.448;2023-12-14T04:02:16;155947.56;;;2.06;100.00
60832;BME280;46665;51.558;-0.448;2023-12-14T04:05:00;155951.41;;;2.07;100.00
60832;BME280;46665;51.558;-0.448;2023-12-14T04:07:44;155943.69;;;2.04;100.00
60832;BME280;46665;51.558;-0.448;2023-12-14T04:10:28;155934.69;;;2.01;100.00
60832;BME280;46665;51.558;-0.448;2023-12-14T04:13:12;155930.81;;;1.99;100.00
60832;BME280;46665;51.558;-0.448;2023-12-14T04:15:56;155937.25;;;2.02;100.00
60832;BME280;46665;51.558;-0.448;2023-12-14T04:18:41;155939.84;;;2.03;100.00
60832;BME280;46665;51.558;-0.448;2023-12-14T04:21:25;155938.53;;;2.02;100.00
60832;BME280;46665;51.558;-0.448;2023-12-14T04:24:09;155946.28;;;2.05;100.00
60832;BME280;46665;51.558;-0.448;2023-12-14T04:26:53;155950.13;;;2.07;100.00
60832;BME280;46665;51.558;-0.448;2023-12-14T04:29:37;155952.75;;;2.08;100.00
60832;BME280;46665;51.558;-0.448;2023-12-14T04:32:21;155942.41;;;2.04;100.00
60832;BME280;46665;51.558;-0.448;2023-12-14T04:35:06;155937.25;;;2.02;100.00
60832;BME280;46665;51.558;-0.448;2023-12-14T04:37:50;155933.41;;;2.00;100.00
60832;BME280;46665;51.558;-0.448;2023-12-14T04:40:34;155951.41;;;2.07;100.00
60832;BME280;46665;51.558;-0.448;2023-12-14T04:43:18;155952.75;;;2.08;100.00
60832;BME280;46665;51.558;-0.448;2023-12-14T04:46:02;155957.84;;;2.10;100.00
60832;BME280;46665;51.558;-0.448;2023-12-14T04:48:46;155955.28;;;2.09;100.00
60832;BME280;46665;51.558;-0.448;2023-12-14T04:51:30;155956.56;;;2.09;100.00
60832;BME280;46665;51.558;-0.448;2023-12-14T04:54:15;155963.00;;;2.12;100.00
60832;BME280;46665;51.558;-0.448;2023-12-14T04:56:59;155960.44;;;2.11;100.00
60832;BME280;46665;51.558;-0.448;2023-12-14T04:59:43;155954.00;;;2.08;100.00
60832;BME280;46665;51.558;-0.448;2023-12-14T05:02:27;155969.44;;;2.14;100.00
60832;BME280;46665;51.558;-0.448;2023-12-14T05:05:11;155954.00;;;2.08;100.00
60832;BME280;46665;51.558;-0.448;2023-12-14T05:07:56;155963.00;;;2.12;100.00
60832;BME280;46665;51.558;-0.448;2023-12-14T05:10:40;155970.72;;;2.15;100.00
60832;BME280;46665;51.558;-0.448;2023-12-14T05:13:24;155978.50;;;2.18;100.00
60832;BME280;46665;51.558;-0.448;2023-12-14T05:16:13;155960.44;;;2.11;100.00
60832;BME280;46665;51.558;-0.448;2023-12-14T05:18:57;155955.28;;;2.09;100.00
60832;BME280;46665;51.558;-0.448;2023-12-14T05:21:41;155955.28;;;2.09;100.00
60832;BME280;46665;51.558;-0.448;2023-12-14T05:24:25;155952.75;;;2.08;100.00
60832;BME280;46665;51.558;-0.448;2023-12-14T05:27:09;155965.63;;;2.13;100.00
60832;BME280;46665;51.558;-0.448;2023-12-14T05:29:53;155954.00;;;2.08;100.00
60832;BME280;46665;51.558;-0.448;2023-12-14T05:32:37;155942.41;;;2.04;100.00
60832;BME280;46665;51.558;-0.448;2023-12-14T05:35:21;155951.41;;;2.07;100.00
60832;BME280;46665;51.558;-0.448;2023-12-14T05:38:05;155957.84;;;2.10;100.00
60832;BME280;46665;51.558;-0.448;2023-12-14T05:40:49;155978.50;;;2.18;100.00
60832;BME280;46665;51.558;-0.448;2023-12-14T05:43:33;155973.34;;;2.16;100.00
60832;BME280;46665;51.558;-0.448;2023-12-14T05:46:21;155970.72;;;2.15;100.00
60832;BME280;46665;51.558;-0.448;2023-12-14T05:49:06;155977.19;;;2.17;100.00
60832;BME280;46665;51.558;-0.448;2023-12-14T05:51:50;155983.63;;;2.20;100.00
60832;BME280;46665;51.558;-0.448;2023-12-14T05:54:36;155997.81;;;2.26;100.00
60832;BME280;46665;51.558;-0.448;2023-12-14T05:57:20;156005.53;;;2.29;100.00
60832;BME280;46665;51.558;-0.448;2023-12-14T06:00:05;156009.38;;;2.30;100.00
60832;BME280;46665;51.558;-0.448;2023-12-14T06:02:51;156022.25;;;2.35;100.00
60832;BME280;46665;51.558;-0.448;2023-12-14T06:05:35;156018.44;;;2.34;100.00
60832;BME280;46665;51.558;-0.448;2023-12-14T06:08:19;156002.94;;;2.28;100.00
60832;BME280;46665;51.558;-0.448;2023-12-14T06:11:03;155996.50;;;2.25;100.00
60832;BME280;46665;51.558;-0.448;2023-12-14T06:13:50;156002.94;;;2.28;100.00
60832;BME280;46665;51.558;-0.448;2023-12-14T06:16:34;156005.53;;;2.29;100.00
60832;BME280;46665;51.558;-0.448;2023-12-14T06:19:18;156014.53;;;2.32;100.00
60832;BME280;46665;51.558;-0.448;2023-12-14T06:22:01;156011.97;;;2.31;100.00
60832;BME280;46665;51.558;-0.448;2023-12-14T06:24:45;156020.97;;;2.35;100.00
60832;BME280;46665;51.558;-0.448;2023-12-14T06:27:30;156002.94;;;2.28;100.00
60832;BME280;46665;51.558;-0.448;2023-12-14T06:30:14;155996.50;;;2.25;100.00
60832;BME280;46665;51.558;-0.448;2023-12-14T06:32:59;156014.53;;;2.32;100.00
60832;BME280;46665;51.558;-0.448;2023-12-14T06:35:43;156005.53;;;2.29;100.00
60832;BME280;46665;51.558;-0.448;2023-12-14T06:38:27;156017.16;;;2.33;100.00
60832;BME280;46665;51.558;-0.448;2023-12-14T06:41:19;156011.97;;;2.31;100.00
60832;BME280;46665;51.558;-0.448;2023-12-14T06:44:03;156020.97;;;2.35;100.00
60832;BME280;46665;51.558;-0.448;2023-12-14T06:46:47;156019.69;;;2.34;100.00
60832;BME280;46665;51.558;-0.448;2023-12-14T06:49:31;156022.25;;;2.35;100.00
60832;BME280;46665;51.558;-0.448;2023-12-14T06:52:15;156030.03;;;2.38;100.00
60832;BME280;46665;51.558;-0.448;2023-12-14T06:54:59;156032.59;;;2.39;100.00
60832;BME280;46665;51.558;-0.448;2023-12-14T06:57:43;156045.47;;;2.45;100.00
60832;BME280;46665;51.558;-0.448;2023-12-14T07:00:28;156046.75;;;2.45;100.00
60832;BME280;46665;51.558;-0.448;2023-12-14T07:03:13;156048.06;;;2.46;100.00
60832;BME280;46665;51.558;-0.448;2023-12-14T07:05:58;156030.03;;;2.38;100.00
60832;BME280;46665;51.558;-0.448;2023-12-14T07:08:42;156036.47;;;2.41;100.00
60832;BME280;46665;51.558;-0.448;2023-12-14T07:11:26;156036.47;;;2.41;100.00
60832;BME280;46665;51.558;-0.448;2023-12-14T07:14:10;156045.47;;;2.45;100.00
60832;BME280;46665;51.558;-0.448;2023-12-14T07:16:54;156051.91;;;2.47;100.00
60832;BME280;46665;51.558;-0.448;2023-12-14T07:19:38;156036.47;;;2.41;100.00
60832;BME280;46665;51.558;-0.448;2023-12-14T07:22:22;156053.19;;;2.48;100.00
60832;BME280;46665;51.558;-0.448;2023-12-14T07:25:07;156066.06;;;2.53;100.00
60832;BME280;46665;51.558;-0.448;2023-12-14T07:27:51;156072.53;;;2.55;100.00
60832;BME280;46665;51.558;-0.448;2023-12-14T07:30:36;156059.63;;;2.50;100.00
60832;BME280;46665;51.558;-0.448;2023-12-14T07:33:20;156055.81;;;2.49;100.00
60832;BME280;46665;51.558;-0.448;2023-12-14T07:36:05;156053.19;;;2.48;100.00
60832;BME280;46665;51.558;-0.448;2023-12-14T07:38:49;156048.06;;;2.46;100.00
60832;BME280;46665;51.558;-0.448;2023-12-14T07:41:33;156035.19;;;2.41;100.00
60832;BME280;46665;51.558;-0.448;2023-12-14T07:44:17;156032.59;;;2.39;100.00
60832;BME280;46665;51.558;-0.448;2023-12-14T07:47:01;156045.47;;;2.45;100.00
60832;BME280;46665;51.558;-0.448;2023-12-14T07:49:46;156048.06;;;2.46;100.00
60832;BME280;46665;51.558;-0.448;2023-12-14T07:52:30;156050.63;;;2.47;100.00
60832;BME280;46665;51.558;-0.448;2023-12-14T07:55:14;156042.91;;;2.44;100.00
60832;BME280;46665;51.558;-0.448;2023-12-14T07:57:58;156044.19;;;2.44;100.00
60832;BME280;46665;51.558;-0.448;2023-12-14T08:00:42;156041.63;;;2.43;100.00
60832;BME280;46665;51.558;-0.448;2023-12-14T08:03:26;156045.47;;;2.45;100.00
60832;BME280;46665;51.558;-0.448;2023-12-14T08:06:10;156040.31;;;2.43;100.00
60832;BME280;46665;51.558;-0.448;2023-12-14T08:08:55;156051.91;;;2.47;100.00
60832;BME280;46665;51.558;-0.448;2023-12-14T08:11:41;156053.19;;;2.48;100.00
60832;BME280;46665;51.558;-0.448;2023-12-14T08:14:25;156063.53;;;2.52;100.00
60832;BME280;46665;51.558;-0.448;2023-12-14T08:17:09;156057.06;;;2.49;100.00
60832;BME280;46665;51.558;-0.448;2023-12-14T08:19:54;156063.53;;;2.52;100.00
60832;BME280;46665;51.558;-0.448;2023-12-14T08:22:38;156060.97;;;2.51;100.00
60832;BME280;46665;51.558;-0.448;2023-12-14T08:25:27;156055.81;;;2.49;100.00
60832;BME280;46665;51.558;-0.448;2023-12-14T08:28:12;156054.53;;;2.48;100.00
60832;BME280;46665;51.558;-0.448;2023-12-14T08:30:56;156053.19;;;2.48;100.00
60832;BME280;46665;51.558;-0.448;2023-12-14T08:33:42;156054.53;;;2.48;100.00
60832;BME280;46665;51.558;-0.448;2023-12-14T08:36:26;156058.34;;;2.50;100.00
60832;BME280;46665;51.558;-0.448;2023-12-14T08:39:10;156058.34;;;2.50;100.00
60832;BME280;46665;51.558;-0.448;2023-12-14T08:41:54;156055.81;;;2.49;100.00
60832;BME280;46665;51.558;-0.448;2023-12-14T08:44:39;156063.53;;;2.52;100.00
60832;BME280;46665;51.558;-0.448;2023-12-14T08:47:24;156077.69;;;2.57;100.00
60832;BME280;46665;51.558;-0.448;2023-12-14T08:50:08;156076.41;;;2.57;100.00
60832;BME280;46665;51.558;-0.448;2023-12-14T08:52:53;156080.28;;;2.58;100.00
60832;BME280;46665;51.558;-0.448;2023-12-14T08:55:36;156102.19;;;2.67;100.00
60832;BME280;46665;51.558;-0.448;2023-12-14T08:58:20;156112.50;;;2.71;100.00
60832;BME280;46665;51.558;-0.448;2023-12-14T09:01:04;156126.66;;;2.77;100.00
60832;BME280;46665;51.558;-0.448;2023-12-14T09:03:49;156125.41;;;2.76;100.00
60832;BME280;46665;51.558;-0.448;2023-12-14T09:06:33;156130.50;;;2.78;100.00
60832;BME280;46665;51.558;-0.448;2023-12-14T09:09:17;156148.56;;;2.86;100.00
60832;BME280;46665;51.558;-0.448;2023-12-14T09:12:02;156156.34;;;2.89;100.00
60832;BME280;46665;51.558;-0.448;2023-12-14T09:17:22;156100.91;;;2.67;100.00
60832;BME280;46665;51.558;-0.448;2023-12-14T09:20:08;156157.63;;;2.89;100.00
60832;BME280;46665;51.558;-0.448;2023-12-14T09:22:53;156153.72;;;2.88;100.00
60832;BME280;46665;51.558;-0.448;2023-12-14T09:25:37;156167.91;;;2.93;100.00
60832;BME280;46665;51.558;-0.448;2023-12-14T09:28:20;156183.38;;;2.99;100.00
60832;BME280;46665;51.558;-0.448;2023-12-14T09:31:05;156192.41;;;3.03;100.00
60832;BME280;46665;51.558;-0.448;2023-12-14T09:33:49;156189.84;;;3.02;100.00
60832;BME280;46665;51.558;-0.448;2023-12-14T09:36:33;156200.13;;;3.06;100.00
60832;BME280;46665;51.558;-0.448;2023-12-14T09:39:16;156197.56;;;3.05;100.00
60832;BME280;46665;51.558;-0.448;2023-12-14T09:42:04;156205.28;;;3.08;100.00
60832;BME280;46665;51.558;-0.448;2023-12-14T09:44:50;156206.56;;;3.09;100.00
60832;BME280;46665;51.558;-0.448;2023-12-14T09:47:38;156236.22;;;3.20;100.00
60832;BME280;46665;51.558;-0.448;2023-12-14T09:50:24;156238.78;;;3.21;100.00
60832;BME280;46665;51.558;-0.448;2023-12-14T09:53:08;156254.28;;;3.28;100.00
60832;BME280;46665;51.558;-0.448;2023-12-14T09:55:52;156258.13;;;3.29;100.00
60832;BME280;46665;51.558;-0.448;2023-12-14T09:58:38;156259.47;;;3.30;100.00
60832;BME280;46665;51.558;-0.448;2023-12-14T10:01:24;156249.13;;;3.25;100.00
60832;BME280;46665;51.558;-0.448;2023-12-14T10:04:11;156251.69;;;3.26;100.00
60832;BME280;46665;51.558;-0.448;2023-12-14T10:06:55;156236.22;;;3.20;100.00
60832;BME280;46665;51.558;-0.448;2023-12-14T10:09:39;156246.56;;;3.24;100.00
60832;BME280;46665;51.558;-0.448;2023-12-14T10:12:24;156232.34;;;3.19;100.00
60832;BME280;46665;51.558;-0.448;2023-12-14T10:15:08;156253.00;;;3.27;100.00
60832;BME280;46665;51.558;-0.448;2023-12-14T10:17:53;156250.41;;;3.26;100.00
60832;BME280;46665;51.558;-0.448;2023-12-14T10:20:38;156251.69;;;3.26;100.00
60832;BME280;46665;51.558;-0.448;2023-12-14T10:23:22;156255.56;;;3.28;100.00
60832;BME280;46665;51.558;-0.448;2023-12-14T10:26:06;156265.91;;;3.32;100.00
60832;BME280;46665;51.558;-0.448;2023-12-14T10:28:50;156274.91;;;3.36;100.00
60832;BME280;46665;51.558;-0.448;2023-12-14T10:31:36;156277.50;;;3.37;100.00
60832;BME280;46665;51.558;-0.448;2023-12-14T10:34:21;156287.81;;;3.41;100.00
60832;BME280;46665;51.558;-0.448;2023-12-14T10:37:06;156287.81;;;3.41;100.00
60832;BME280;46665;51.558;-0.448;2023-12-14T10:39:51;156289.09;;;3.41;100.00
60832;BME280;46665;51.558;-0.448;2023-12-14T10:42:39;156298.13;;;3.45;100.00
60832;BME280;46665;51.558;-0.448;2023-12-14T10:45:32;156312.31;;;3.51;100.00
60832;BME280;46665;51.558;-0.448;2023-12-14T10:48:17;156298.13;;;3.45;100.00
60832;BME280;46665;51.558;-0.448;2023-12-14T10:51:05;156314.88;;;3.52;100.00
60832;BME280;46665;51.558;-0.448;2023-12-14T10:53:49;156317.47;;;3.53;100.00
60832;BME280;46665;51.558;-0.448;2023-12-14T10:56:35;156321.31;;;3.54;100.00
60832;BME280;46665;51.558;-0.448;2023-12-14T10:59:20;156322.66;;;3.55;100.00
60832;BME280;46665;51.558;-0.448;2023-12-14T11:02:08;156329.09;;;3.57;100.00
60832;BME280;46665;51.558;-0.448;2023-12-14T11:04:59;156342.00;;;3.62;100.00
60832;BME280;46665;51.558;-0.448;2023-12-14T11:07:45;156369.06;;;3.73;100.00
60832;BME280;46665;51.558;-0.448;2023-12-14T11:10:37;156376.78;;;3.76;100.00
60832;BME280;46665;51.558;-0.448;2023-12-14T11:13:23;156379.34;;;3.77;100.00
60832;BME280;46665;51.558;-0.448;2023-12-14T11:16:07;156380.69;;;3.78;100.00
60832;BME280;46665;51.558;-0.448;2023-12-14T11:19:23;156394.84;;;3.83;100.00
60832;BME280;46665;51.558;-0.448;2023-12-14T11:24:56;156407.75;;;3.88;100.00
60832;BME280;46665;51.558;-0.448;2023-12-14T11:27:43;156421.94;;;3.94;100.00
60832;BME280;46665;51.558;-0.448;2023-12-14T11:30:30;156427.09;;;3.96;100.00
60832;BME280;46665;51.558;-0.448;2023-12-14T11:33:16;156425.81;;;3.96;100.00
60832;BME280;46665;51.558;-0.448;2023-12-14T11:36:01;156449.00;;;4.05;100.00
60832;BME280;46665;51.558;-0.448;2023-12-14T11:38:48;156459.34;;;4.09;100.00
60832;BME280;46665;51.558;-0.448;2023-12-14T11:41:33;156467.06;;;4.12;100.00
60832;BME280;46665;51.558;-0.448;2023-12-14T11:44:25;156467.06;;;4.12;100.00
60832;BME280;46665;51.558;-0.448;2023-12-14T11:47:08;156465.78;;;4.11;100.00
60832;BME280;46665;51.558;-0.448;2023-12-14T11:49:52;156468.34;;;4.12;100.00
60832;BME280;46665;51.558;-0.448;2023-12-14T11:52:36;156467.06;;;4.12;100.00
60832;BME280;46665;51.558;-0.448;2023-12-14T11:55:21;156482.56;;;4.18;100.00
60832;BME280;46665;51.558;-0.448;2023-12-14T11:58:05;156496.75;;;4.24;100.00
60832;BME280;46665;51.558;-0.448;2023-12-14T12:00:49;156504.50;;;4.27;100.00
60832;BME280;46665;51.558;-0.448;2023-12-14T12:03:33;156513.56;;;4.30;100.00
60832;BME280;46665;51.558;-0.448;2023-12-14T12:06:25;156534.19;;;4.39;100.00
60832;BME280;46665;51.558;-0.448;2023-12-14T12:09:11;156539.34;;;4.41;100.00
60832;BME280;46665;51.558;-0.448;2023-12-14T12:11:57;156549.66;;;4.45;100.00
60832;BME280;46665;51.558;-0.448;2023-12-14T12:14:41;156566.44;;;4.51;100.00
60832;BME280;46665;51.558;-0.448;2023-12-14T12:17:25;156580.63;;;4.57;100.00
60832;BME280;46665;51.558;-0.448;2023-12-14T12:20:10;156585.78;;;4.59;100.00
60832;BME280;46665;51.558;-0.448;2023-12-14T12:22:54;156590.97;;;4.61;100.00
60832;BME280;46665;51.558;-0.448;2023-12-14T12:25:38;156599.97;;;4.65;100.00
60832;BME280;46665;51.558;-0.448;2023-12-14T12:28:22;156615.44;;;4.71;100.00
60832;BME280;46665;51.558;-0.448;2023-12-14T12:31:06;156627.06;;;4.75;100.00
60832;BME280;46665;51.558;-0.448;2023-12-14T12:33:50;156628.34;;;4.76;100.00
60832;BME280;46665;51.558;-0.448;2023-12-14T12:36:34;156639.97;;;4.81;100.00
60832;BME280;46665;51.558;-0.448;2023-12-14T12:39:18;156649.03;;;4.84;100.00
60832;BME280;46665;51.558;-0.448;2023-12-14T12:42:02;156647.75;;;4.84;100.00
60832;BME280;46665;51.558;-0.448;2023-12-14T12:44:46;156667.13;;;4.91;100.00
60832;BME280;46665;51.558;-0.448;2023-12-14T12:47:30;156682.59;;;4.97;100.00
60832;BME280;46665;51.558;-0.448;2023-12-14T12:50:14;156690.31;;;5.00;100.00
60832;BME280;46665;51.558;-0.448;2023-12-14T12:52:58;156705.84;;;5.07;100.00
60832;BME280;46665;51.558;-0.448;2023-12-14T12:55:42;156723.88;;;5.14;100.00
60832;BME280;46665;51.558;-0.448;2023-12-14T12:58:26;156734.22;;;5.18;100.00
60832;BME280;46665;51.558;-0.448;2023-12-14T13:01:10;156744.56;;;5.22;100.00
60832;BME280;46665;51.558;-0.448;2023-12-14T13:03:54;156753.59;;;5.26;100.00
60832;BME280;46665;51.558;-0.448;2023-12-14T13:06:40;156769.09;;;5.32;100.00
60832;BME280;46665;51.558;-0.448;2023-12-14T13:09:24;156771.66;;;5.33;100.00
60832;BME280;46665;51.558;-0.448;2023-12-14T13:12:08;156769.09;;;5.32;100.00
60832;BME280;46665;51.558;-0.448;2023-12-14T13:14:54;156765.22;;;5.30;100.00
60832;BME280;46665;51.558;-0.448;2023-12-14T13:17:43;156771.66;;;5.33;100.00
60832;BME280;46665;51.558;-0.448;2023-12-14T13:20:27;156772.94;;;5.33;100.00
60832;BME280;46665;51.558;-0.448;2023-12-14T13:23:12;156752.31;;;5.25;100.00
60832;BME280;46665;51.558;-0.448;2023-12-14T13:25:56;156758.75;;;5.28;100.00
60832;BME280;46665;51.558;-0.448;2023-12-14T13:28:55;156792.31;;;5.41;100.00
60832;BME280;46665;51.558;-0.448;2023-12-14T13:31:47;156752.31;;;5.25;100.00
60832;BME280;46665;51.558;-0.448;2023-12-14T13:34:48;156752.31;;;5.25;100.00
60832;BME280;46665;51.558;-0.448;2023-12-14T13:37:40;156782.00;;;5.37;100.00
60832;BME280;46665;51.558;-0.448;2023-12-14T13:40:51;156822.03;;;5.53;100.00
60832;BME280;46665;51.558;-0.448;2023-12-14T13:43:39;156810.41;;;5.48;100.00
60832;BME280;46665;51.558;-0.448;2023-12-14T13:46:30;156823.31;;;5.53;100.00
60832;BME280;46665;51.558;-0.448;2023-12-14T13:49:14;156811.69;;;5.49;100.00
60832;BME280;46665;51.558;-0.448;2023-12-14T13:52:26;156812.97;;;5.49;100.00
60832;BME280;46665;51.558;-0.448;2023-12-14T13:55:27;156825.88;;;5.54;100.00
60832;BME280;46665;51.558;-0.448;2023-12-14T13:58:11;156860.78;;;5.68;100.00
60832;BME280;46665;51.558;-0.448;2023-12-14T14:00:56;156862.06;;;5.69;100.00
60832;BME280;46665;51.558;-0.448;2023-12-14T14:03:41;156878.84;;;5.75;100.00
60832;BME280;46665;51.558;-0.448;2023-12-14T14:06:25;156880.13;;;5.76;100.00
60832;BME280;46665;51.558;-0.448;2023-12-14T14:09:09;156893.06;;;5.81;100.00
60832;BME280;46665;51.558;-0.448;2023-12-14T14:11:54;156915.00;;;5.90;100.00
60832;BME280;46665;51.558;-0.448;2023-12-14T14:14:39;156916.31;;;5.90;100.00
60832;BME280;46665;51.558;-0.448;2023-12-14T14:17:23;156922.78;;;5.93;100.00